Time;durP1;ratioP1;P1;durP2;ratioP2;P2;SDS_P1;SDS_P2;PMS_P1;PMS_P2;Temp;Humidity;BMP_temperature;BMP_pressure;BME280_temperature;BME280_humidity;BME280_pressure;Samples;Min_cycle;Max_cycle;Signal;HPM_P1;HPM_P2
2023/01/21 00:01:37;;;;;;;10.97;8.00;;;;;;;6.42;92.82;99086.09;5048196;28;20193;-69
2023/01/21 00:04:04;;;;;;;8.93;7.80;;;;;;;6.47;92.92;99082.91;5031399;28;20201;-69
2023/01/21 00:06:31;;;;;;;9.10;7.70;;;;;;;6.46;92.66;99081.28;5031544;28;20239;-69
2023/01/21 00:08:59;;;;;;;10.67;7.53;;;;;;;6.50;92.22;99085.19;5031824;28;20275;-69
2023/01/21 00:11:25;;;;;;;13.50;10.10;;;;;;;6.42;92.06;99083.47;5031305;28;20232;-69
2023/01/21 00:13:52;;;;;;;18.10;11.50;;;;;;;6.32;92.94;99079.44;5051314;28;20227;-69
2023/01/21 00:16:20;;;;;;;23.63;13.20;;;;;;;6.29;93.19;99096.41;5050066;28;20251;-69
2023/01/21 00:18:47;;;;;;;23.20;13.77;;;;;;;6.30;93.14;99102.53;5051697;28;20201;-69
2023/01/21 00:21:14;;;;;;;19.93;11.93;;;;;;;6.29;93.15;99100.88;5039248;28;20193;-69
2023/01/21 00:23:40;;;;;;;15.83;10.93;;;;;;;6.18;93.02;99109.22;5032102;28;20264;-69
2023/01/21 00:26:10;;;;;;;21.37;12.60;;;;;;;6.17;94.92;99107.59;5034991;28;20199;-69
2023/01/21 00:28:37;;;;;;;16.63;13.30;;;;;;;6.16;94.56;99105.94;5034969;28;20225;-69
2023/01/21 00:31:05;;;;;;;13.07;11.73;;;;;;;6.14;93.97;99105.28;5046825;28;20192;-69
2023/01/21 00:33:34;;;;;;;14.90;10.50;;;;;;;6.13;94.09;99106.28;5054043;28;20279;-69
2023/01/21 00:36:02;;;;;;;14.53;11.17;;;;;;;6.12;94.75;99099.38;5054502;28;20737;-69
2023/01/21 00:38:29;;;;;;;12.17;10.93;;;;;;;6.14;94.17;99097.38;5054648;28;20258;-70
2023/01/21 00:41:00;;;;;;;12.20;11.07;;;;;;;6.12;94.33;99108.09;5046779;28;20190;-69
2023/01/21 00:43:27;;;;;;;11.83;10.40;;;;;;;6.10;94.42;99117.19;5034672;28;20655;-69
2023/01/21 00:45:54;;;;;;;14.67;12.40;;;;;;;6.08;93.37;99104.19;5034372;28;20629;-69
2023/01/21 00:48:21;;;;;;;31.20;18.33;;;;;;;5.97;93.80;99106.41;5052838;28;20196;-68
2023/01/21 00:50:50;;;;;;;23.53;15.73;;;;;;;5.96;94.58;99110.84;5053513;28;20193;-69
2023/01/21 00:53:17;;;;;;;36.03;21.37;;;;;;;6.00;94.56;99106.06;5052806;28;20279;-69
2023/01/21 00:55:43;;;;;;;25.90;14.73;;;;;;;5.98;93.88;99108.88;5054450;28;20246;-69
2023/01/21 00:58:10;;;;;;;16.77;13.60;;;;;;;6.03;94.39;99108.34;5054233;28;20227;-69
2023/01/21 01:00:37;;;;;;;16.03;11.60;;;;;;;6.04;93.89;99094.97;5036489;28;20207;-69
2023/01/21 01:03:03;;;;;;;15.00;10.33;;;;;;;6.11;93.52;99103.00;5033954;28;20681;-69
2023/01/21 01:05:30;;;;;;;11.40;10.17;;;;;;;6.16;94.36;99105.94;5034589;28;20197;-69
2023/01/21 01:07:58;;;;;;;11.43;10.33;;;;;;;6.17;93.47;99091.75;5033914;28;20202;-69
2023/01/21 01:10:25;;;;;;;12.73;11.00;;;;;;;6.13;92.74;99093.13;5052220;28;20281;-69
2023/01/21 01:12:51;;;;;;;12.33;10.37;;;;;;;6.16;93.25;99098.03;5053666;28;20664;-69
2023/01/21 01:15:18;;;;;;;10.30;9.40;;;;;;;6.15;92.92;99093.75;5054071;28;20222;-69
2023/01/21 01:17:45;;;;;;;10.77;9.73;;;;;;;6.18;92.79;99093.41;5053671;28;20198;-69
2023/01/21 01:20:12;;;;;;;13.43;10.17;;;;;;;6.19;92.85;99097.66;5052865;28;20784;-69
2023/01/21 01:22:38;;;;;;;10.57;9.60;;;;;;;6.17;92.87;99092.59;5053470;28;20267;-69
2023/01/21 01:25:07;;;;;;;13.10;9.73;;;;;;;6.16;92.51;99090.94;5054742;28;20673;-69
2023/01/21 01:27:34;;;;;;;10.47;9.47;;;;;;;6.13;92.34;99079.94;5053118;28;20206;-69
2023/01/21 01:30:00;;;;;;;10.07;9.20;;;;;;;6.11;92.16;99085.38;5052924;28;20278;-69
2023/01/21 01:32:27;;;;;;;11.30;10.23;;;;;;;6.07;92.44;99075.34;5053628;28;20196;-69
2023/01/21 01:34:53;;;;;;;10.70;9.70;;;;;;;6.03;92.25;99089.88;5052360;28;20192;-69
2023/01/21 01:37:20;;;;;;;10.70;9.70;;;;;;;5.97;92.46;99082.69;5053495;28;20197;-70
2023/01/21 01:39:47;;;;;;;11.63;10.10;;;;;;;5.97;92.89;99086.16;5053274;28;20196;-70
2023/01/21 01:42:16;;;;;;;11.67;10.47;;;;;;;5.97;93.33;99086.16;5053173;28;20197;-69
2023/01/21 01:44:59;;;;;;;14.33;11.10;;;;;;;5.83;92.56;99072.94;5053482;28;20196;-70
2023/01/21 01:47:31;;;;;;;11.10;10.00;;;;;;;5.70;93.00;99076.09;5047731;28;20197;-70
2023/01/21 01:49:59;;;;;;;11.07;10.00;;;;;;;5.73;94.03;99073.94;5053735;28;20212;-69
2023/01/21 01:52:27;;;;;;;14.83;9.53;;;;;;;5.69;93.22;99077.91;5053248;28;20589;-69
2023/01/21 01:54:57;;;;;;;10.87;9.90;;;;;;;5.73;93.42;99060.75;5053029;28;20659;-69
2023/01/21 01:57:32;;;;;;;10.47;9.23;;;;;;;5.75;93.27;99069.31;5052026;28;20184;-69
2023/01/21 02:00:02;;;;;;;9.50;8.60;;;;;;;5.75;93.10;99069.31;5053181;28;20196;-69
2023/01/21 02:02:29;;;;;;;9.17;8.40;;;;;;;5.77;93.16;99080.50;5052963;28;20592;-69
2023/01/21 02:05:00;;;;;;;9.23;8.33;;;;;;;5.75;92.75;99079.88;5053145;28;20250;-69
2023/01/21 02:07:31;;;;;;;9.40;8.57;;;;;;;5.70;92.60;99070.84;5040092;28;20197;-69
2023/01/21 02:09:59;;;;;;;8.87;8.07;;;;;;;5.65;92.44;99076.63;5052701;28;20219;-69
2023/01/21 02:12:27;;;;;;;13.43;9.00;;;;;;;5.60;92.61;99075.53;5052993;28;20254;-68
2023/01/21 02:14:54;;;;;;;11.43;10.00;;;;;;;5.56;92.17;99066.34;5052940;28;20193;-68
2023/01/21 02:17:32;;;;;;;11.93;9.90;;;;;;;5.46;93.03;99071.81;5034550;28;20190;-68
2023/01/21 02:20:20;;;;;;;11.73;10.37;;;;;;;5.31;93.06;99078.81;5032919;28;20205;-69
2023/01/21 02:22:57;;;;;;;10.27;9.27;;;;;;;5.35;93.60;99080.13;5032671;28;20566;-69
2023/01/21 02:25:54;;;;;;;11.30;9.77;;;;;;;5.34;93.71;99089.00;5051339;28;20251;-69
2023/01/21 02:29:08;;;;;;;12.07;10.23;;;;;;;5.22;93.54;99085.13;5032703;28;20245;-69
2023/01/21 02:31:59;;;;;;;13.83;10.37;;;;;;;5.04;93.64;99079.28;5022694;28;20253;-69
2023/01/21 02:34:38;;;;;;;11.77;10.67;;;;;;;4.90;94.45;99087.09;5051499;28;20636;-69
2023/01/21 02:37:10;;;;;;;13.37;10.67;;;;;;;4.79;94.70;99076.91;5052823;28;20185;-69
2023/01/21 02:39:56;;;;;;;12.33;11.07;;;;;;;4.83;95.77;99083.47;5052530;28;20242;-69
2023/01/21 02:42:29;;;;;;;12.20;11.10;;;;;;;4.92;96.60;99082.47;5052149;28;20184;-69
2023/01/21 02:45:04;;;;;;;12.13;10.87;;;;;;;4.95;96.24;99082.13;5049720;28;20199;-69
2023/01/21 02:47:37;;;;;;;12.83;11.57;;;;;;;4.96;95.08;99078.50;5052253;28;20184;-69
2023/01/21 02:50:10;;;;;;;11.67;10.47;;;;;;;4.87;94.54;99069.00;5052392;28;20204;-68
2023/01/21 02:52:36;;;;;;;11.67;10.50;;;;;;;4.78;94.83;99062.94;5052071;28;20189;-68
2023/01/21 02:55:04;;;;;;;12.30;11.03;;;;;;;4.76;95.40;99056.19;5041461;28;20227;-69
2023/01/21 02:57:38;;;;;;;13.80;11.23;;;;;;;4.82;95.26;99056.34;5032191;28;20657;-68
2023/01/21 03:00:10;;;;;;;11.90;10.80;;;;;;;4.87;95.28;99061.91;5032258;28;20193;-68
2023/01/21 03:02:59;;;;;;;13.17;11.70;;;;;;;4.85;95.56;99063.06;5050711;28;20247;-68
2023/01/21 03:05:40;;;;;;;16.37;12.70;;;;;;;4.90;95.23;99061.56;5038947;28;20193;-68
2023/01/21 03:08:12;;;;;;;13.93;10.97;;;;;;;4.89;93.79;99048.59;5031913;28;20189;-68
2023/01/21 03:10:43;;;;;;;12.27;11.13;;;;;;;4.79;94.03;99047.97;5032134;28;20209;-69
2023/01/21 03:16:55;;;;;;;12.80;11.57;;;;;;;4.75;94.84;99060.63;5031837;28;20661;-69
2023/01/21 03:18:56;;;;;;;25.73;16.70;;;;;;;4.72;95.55;99065.41;5052158;28;20306;-69
2023/01/21 03:21:27;;;;;;;40.03;25.30;;;;;;;4.79;95.59;99056.69;5051191;28;20656;-68
2023/01/21 03:23:55;;;;;;;28.50;20.67;;;;;;;4.77;94.12;99050.78;5051492;28;20283;-69
2023/01/21 03:26:29;;;;;;;21.17;15.43;;;;;;;4.78;93.76;99051.59;5051907;28;20439;-69
2023/01/21 03:29:01;;;;;;;17.97;15.03;;;;;;;4.74;94.22;99034.53;5051489;28;20675;-69
2023/01/21 03:31:30;;;;;;;20.37;14.60;;;;;;;4.78;94.12;99043.72;5035936;28;20189;-69
2023/01/21 03:34:00;;;;;;;20.97;13.07;;;;;;;4.74;95.00;99048.47;5032139;28;20193;-70
2023/01/21 03:36:36;;;;;;;17.13;14.20;;;;;;;4.80;94.08;99052.25;5031870;28;20266;-69
2023/01/21 03:39:09;;;;;;;15.37;12.37;;;;;;;4.69;94.27;99035.03;5044327;28;20242;-70
2023/01/21 03:41:39;;;;;;;14.97;12.27;;;;;;;4.58;95.58;99026.69;5049874;28;20246;-69
2023/01/21 03:44:06;;;;;;;18.77;12.87;;;;;;;4.61;95.71;99042.09;5050575;28;20192;-69
2023/01/21 03:46:38;;;;;;;23.53;14.87;;;;;;;4.59;96.16;99039.66;5051772;28;20196;-69
2023/01/21 03:49:10;;;;;;;32.43;17.97;;;;;;;4.45;95.83;99037.72;5036919;28;20650;-69
2023/01/21 03:51:41;;;;;;;31.67;18.47;;;;;;;4.46;95.41;99049.88;5031810;28;20193;-69
2023/01/21 03:54:08;;;;;;;27.07;17.33;;;;;;;4.53;95.50;99050.84;5031815;28;20248;-68
2023/01/21 03:56:35;;;;;;;36.73;17.83;;;;;;;4.56;94.75;99058.41;5031775;28;20197;-69
2023/01/21 03:59:02;;;;;;;26.83;17.53;;;;;;;4.48;94.29;99062.84;5037431;28;20254;-68
2023/01/21 04:01:28;;;;;;;19.97;15.03;;;;;;;4.44;95.64;99078.16;5055513;28;20196;-69
2023/01/21 04:03:56;;;;;;;25.03;15.53;;;;;;;4.29;95.68;99079.00;5054243;28;20250;-69
2023/01/21 04:06:23;;;;;;;19.70;13.17;;;;;;;4.36;96.00;99079.97;5055258;28;20192;-69
2023/01/21 04:08:51;;;;;;;17.00;12.40;;;;;;;4.37;95.60;99082.44;5055275;28;20508;-69
2023/01/21 04:11:18;;;;;;;17.13;13.67;;;;;;;4.33;96.67;99081.13;5054851;28;20475;-69
2023/01/21 04:13:44;;;;;;;21.97;13.20;;;;;;;4.24;96.62;99084.75;5037661;28;20220;-69
2023/01/21 04:16:11;;;;;;;15.20;12.53;;;;;;;4.26;98.06;99077.53;5047787;28;20455;-69
2023/01/21 04:18:38;;;;;;;19.93;13.00;;;;;;;4.24;97.96;99068.97;5055122;28;20199;-69
2023/01/21 04:21:04;;;;;;;15.47;12.97;;;;;;;4.26;97.66;99080.16;5054729;28;20473;-69
2023/01/21 04:23:31;;;;;;;16.50;12.77;;;;;;;4.30;96.99;99091.97;5039842;28;20271;-69
2023/01/21 04:25:59;;;;;;;19.43;13.53;;;;;;;4.30;95.65;99086.72;5034718;28;20443;-70
2023/01/21 04:28:26;;;;;;;14.63;12.60;;;;;;;4.34;96.92;99097.72;5034996;28;20190;-69
2023/01/21 04:30:52;;;;;;;14.67;11.57;;;;;;;4.25;96.75;99094.28;5045737;28;20216;-69
2023/01/21 04:33:19;;;;;;;14.70;12.23;;;;;;;4.08;95.84;99102.31;5041681;28;20452;-69
2023/01/21 04:35:46;;;;;;;12.43;11.37;;;;;;;4.07;96.73;99122.53;5036109;28;20263;-69
2023/01/21 04:38:14;;;;;;;15.30;11.80;;;;;;;4.17;97.50;99106.63;5054772;28;20193;-69
2023/01/21 04:40:41;;;;;;;23.03;13.50;;;;;;;4.24;97.28;99105.78;5053638;28;20216;-69
2023/01/21 04:43:09;;;;;;;19.20;12.03;;;;;;;4.13;96.12;99084.28;5054654;28;20447;-69
2023/01/21 04:45:36;;;;;;;13.57;11.37;;;;;;;4.24;95.87;99086.56;5054205;28;20254;-69
2023/01/21 04:48:03;;;;;;;14.77;11.50;;;;;;;4.28;96.59;99093.94;5054042;28;20246;-70
2023/01/21 04:50:29;;;;;;;16.23;12.47;;;;;;;4.32;95.65;99113.66;5051348;28;20948;-69
2023/01/21 04:52:56;;;;;;;18.53;12.63;;;;;;;4.35;95.47;99105.47;5044216;28;20496;-69
2023/01/21 04:55:22;;;;;;;12.83;11.57;;;;;;;4.39;95.27;99095.41;5053971;28;20246;-69
2023/01/21 04:57:49;;;;;;;18.43;12.23;;;;;;;4.43;95.51;99100.19;5054371;28;20197;-69
2023/01/21 05:00:18;;;;;;;14.37;12.20;;;;;;;4.50;95.39;99097.72;5053500;28;20443;-69
2023/01/21 05:02:45;;;;;;;18.67;11.67;;;;;;;4.46;94.72;99097.19;5054031;28;20664;-69
2023/01/21 05:05:11;;;;;;;16.93;12.77;;;;;;;4.47;94.56;99108.56;5054158;28;20193;-69
2023/01/21 05:07:38;;;;;;;33.97;19.00;;;;;;;4.47;95.03;99109.38;5054233;28;20443;-70
2023/01/21 05:10:05;;;;;;;21.33;13.87;;;;;;;4.47;94.35;99119.91;5053631;28;20278;-70
2023/01/21 05:12:32;;;;;;;22.90;14.77;;;;;;;4.39;93.39;99119.06;5043491;28;20200;-69
2023/01/21 05:14:59;;;;;;;15.93;12.50;;;;;;;4.32;94.24;99126.81;5053283;28;20196;-69
2023/01/21 05:17:27;;;;;;;14.00;11.77;;;;;;;4.23;94.08;99135.69;5053955;28;20473;-69
2023/01/21 05:19:53;;;;;;;15.43;11.60;;;;;;;4.04;93.90;99137.84;5053912;28;20196;-69
2023/01/21 05:22:20;;;;;;;14.10;11.77;;;;;;;3.92;94.38;99137.31;5036770;28;20194;-69
2023/01/21 05:24:47;;;;;;;21.03;12.17;;;;;;;3.91;94.64;99143.56;5033484;28;20705;-69
2023/01/21 05:27:14;;;;;;;18.37;11.90;;;;;;;3.97;95.62;99126.31;5034073;28;20849;-69
2023/01/21 05:29:41;;;;;;;14.87;12.43;;;;;;;4.02;95.34;99131.91;5039716;28;20457;-69
2023/01/21 05:32:08;;;;;;;26.53;13.13;;;;;;;4.03;95.43;99130.91;5052754;28;20443;-69
2023/01/21 05:34:36;;;;;;;15.87;12.63;;;;;;;3.97;94.50;99124.50;5053647;28;20435;-69
2023/01/21 05:37:03;;;;;;;21.20;12.77;;;;;;;4.00;94.62;99126.00;5053339;28;20434;-69
2023/01/21 05:39:30;;;;;;;18.53;13.50;;;;;;;4.04;94.99;99132.56;5053833;28;20508;-70
2023/01/21 05:41:56;;;;;;;21.17;13.07;;;;;;;4.08;95.16;99133.84;5039805;28;20578;-69
2023/01/21 05:44:23;;;;;;;24.40;13.83;;;;;;;4.12;95.28;99135.19;5033264;28;20216;-66
2023/01/21 05:46:50;;;;;;;14.60;13.00;;;;;;;3.98;95.42;99127.97;5033480;28;20436;-66
2023/01/21 05:49:17;;;;;;;17.00;13.00;;;;;;;4.03;95.84;99137.00;5037034;28;20287;-70
2023/01/21 05:51:45;;;;;;;18.37;14.50;;;;;;;4.09;95.09;99141.59;5052495;28;20235;-66
2023/01/21 05:54:11;;;;;;;20.33;13.67;;;;;;;4.14;95.18;99149.81;5053121;28;20624;-68
2023/01/21 05:56:38;;;;;;;17.53;13.13;;;;;;;4.18;95.59;99148.50;5053230;28;20652;-68
2023/01/21 05:59:05;;;;;;;18.00;14.93;;;;;;;4.27;95.31;99155.41;5050260;28;20505;-68
2023/01/21 06:01:31;;;;;;;31.57;15.50;;;;;;;4.36;95.93;99157.03;5032618;28;20506;-68
2023/01/21 06:03:58;;;;;;;19.80;14.53;;;;;;;4.48;95.94;99153.09;5033173;28;20193;-68
2023/01/21 06:06:25;;;;;;;24.23;15.40;;;;;;;4.55;96.27;99154.06;5036151;28;20222;-68
2023/01/21 06:08:53;;;;;;;29.40;19.20;;;;;;;4.48;95.78;99142.56;5052060;28;20735;-69
2023/01/21 06:11:19;;;;;;;27.93;16.23;;;;;;;4.53;95.58;99145.53;5032909;28;20649;-68
2023/01/21 06:13:46;;;;;;;28.33;17.17;;;;;;;4.62;96.35;99152.41;5033020;28;20200;-66
2023/01/21 06:16:13;;;;;;;28.23;17.50;;;;;;;4.61;95.57;99163.91;5032576;28;20251;-66
2023/01/21 06:18:39;;;;;;;69.10;24.27;;;;;;;4.60;94.75;99150.94;5032689;28;20240;-68
2023/01/21 06:21:06;;;;;;;92.67;33.73;;;;;;;4.72;95.90;99150.44;5050317;28;20192;-67
2023/01/21 06:23:33;;;;;;;39.87;20.40;;;;;;;4.87;96.33;99151.38;5052402;28;20228;-68
2023/01/21 06:26:02;;;;;;;26.97;17.00;;;;;;;4.95;95.69;99124.22;5052843;28;20656;-68
2023/01/21 06:28:29;;;;;;;32.33;18.17;;;;;;;5.00;95.18;99122.72;5051868;28;20196;-68
2023/01/21 06:30:56;;;;;;;33.70;17.73;;;;;;;5.07;95.31;99123.66;5046818;28;20220;-67
2023/01/21 06:33:22;;;;;;;26.00;16.83;;;;;;;5.25;94.98;99140.06;5052612;28;20196;-66
2023/01/21 06:35:49;;;;;;;22.70;16.27;;;;;;;5.35;94.95;99151.22;5052406;28;20188;-66
2023/01/21 06:38:16;;;;;;;25.03;16.20;;;;;;;5.49;95.35;99158.41;5052506;28;20250;-68
2023/01/21 06:40:43;;;;;;;28.70;18.03;;;;;;;5.68;94.89;99170.31;5036804;28;20766;-67
2023/01/21 06:43:11;;;;;;;22.13;16.87;;;;;;;5.85;94.47;99184.25;5031996;28;20196;-69
2023/01/21 06:45:38;;;;;;;28.87;17.23;;;;;;;5.92;94.30;99187.84;5032398;28;20196;-67
2023/01/21 06:48:05;;;;;;;22.07;17.03;;;;;;;5.99;92.81;99194.03;5032175;28;20260;-68
2023/01/21 06:50:32;;;;;;;22.57;16.27;;;;;;;6.03;93.10;99211.16;5032358;28;20314;-68
2023/01/21 06:52:58;;;;;;;19.53;15.30;;;;;;;5.94;92.81;99186.66;5051926;28;20656;-69
2023/01/21 06:55:25;;;;;;;27.53;19.00;;;;;;;5.63;92.26;99210.34;5051532;28;20192;-68
2023/01/21 06:57:52;;;;;;;27.90;17.13;;;;;;;5.10;89.98;99227.78;5047128;28;20196;-68
2023/01/21 07:00:21;;;;;;;28.77;17.33;;;;;;;4.77;90.13;99227.03;5048979;28;20197;-68
2023/01/21 07:02:48;;;;;;;30.13;16.47;;;;;;;4.80;91.87;99216.19;5051588;28;20195;-67
2023/01/21 07:05:15;;;;;;;28.90;17.57;;;;;;;4.85;92.24;99216.50;5044249;28;20200;-67
2023/01/21 07:07:41;;;;;;;19.03;15.00;;;;;;;4.90;90.99;99210.75;5050571;28;20196;-67
2023/01/21 07:10:09;;;;;;;18.10;14.13;;;;;;;4.78;90.56;99210.25;5051748;28;20196;-66
2023/01/21 07:12:36;;;;;;;24.73;16.77;;;;;;;4.80;92.49;99223.25;5051610;28;20839;-67
2023/01/21 07:15:03;;;;;;;22.63;16.13;;;;;;;4.79;92.34;99229.50;5040802;28;20436;-68
2023/01/21 07:17:34;;;;;;;20.63;15.20;;;;;;;4.74;91.79;99219.47;5044605;28;20200;-66
2023/01/21 07:20:01;;;;;;;23.43;15.50;;;;;;;4.81;94.10;99207.31;5051386;28;20223;-68
2023/01/21 07:22:27;;;;;;;21.80;16.23;;;;;;;4.96;94.54;99210.91;5050679;28;20628;-66
2023/01/21 07:24:54;;;;;;;23.50;15.63;;;;;;;5.12;94.49;99197.72;5051687;28;20298;-66
2023/01/21 07:27:21;;;;;;;20.60;15.70;;;;;;;5.24;93.59;99204.22;5039174;28;20193;-67
2023/01/21 07:29:47;;;;;;;30.03;14.83;;;;;;;5.28;93.47;99216.06;5033356;28;20258;-66
2023/01/21 07:32:14;;;;;;;43.10;29.17;;;;;;;5.26;92.11;99207.53;5051118;28;20224;-68
2023/01/21 07:34:42;;;;;;;35.03;25.20;;;;;;;5.25;92.69;99221.69;5053791;28;20230;-67
2023/01/21 07:37:09;;;;;;;25.70;17.30;;;;;;;5.29;93.35;99204.56;5054389;28;20683;-66
2023/01/21 07:39:35;;;;;;;20.87;14.87;;;;;;;5.40;94.68;99219.97;5055801;28;20188;-67
2023/01/21 07:42:02;;;;;;;38.73;18.03;;;;;;;5.46;94.19;99235.13;5055773;28;20265;-67
2023/01/21 07:44:29;;;;;;;28.77;17.40;;;;;;;5.52;93.08;99221.25;5055586;28;20430;-66
2023/01/21 07:46:55;;;;;;;32.77;18.67;;;;;;;5.37;92.99;99207.16;5045952;28;20257;-66
2023/01/21 07:49:22;;;;;;;29.97;20.40;;;;;;;5.44;93.75;99220.47;5035664;28;20201;-67
2023/01/21 07:51:55;;;;;;;127.67;49.73;;;;;;;5.40;93.47;99225.25;5035447;28;20628;-68
2023/01/21 07:54:22;;;;;;;46.13;26.13;;;;;;;5.58;95.30;99217.13;5035355;28;20185;-67
2023/01/21 07:56:48;;;;;;;53.13;23.20;;;;;;;5.73;95.05;99226.75;5050048;28;20240;-68
2023/01/21 07:59:15;;;;;;;45.30;21.27;;;;;;;5.87;94.71;99235.00;5035457;28;20189;-67
2023/01/21 08:01:42;;;;;;;34.63;19.13;;;;;;;5.74;93.93;99225.78;5034789;28;20207;-68
2023/01/21 08:04:09;;;;;;;32.40;19.63;;;;;;;5.68;93.94;99231.72;5054998;28;20721;-68
2023/01/21 08:06:40;;;;;;;32.83;19.77;;;;;;;5.63;95.32;99236.69;5037156;28;20201;-69
2023/01/21 08:09:08;;;;;;;25.17;18.33;;;;;;;5.51;94.19;99243.31;5035336;28;20244;-67
2023/01/21 08:11:34;;;;;;;29.67;18.93;;;;;;;5.47;93.97;99239.38;5045041;28;20667;-68
2023/01/21 08:14:01;;;;;;;26.27;17.50;;;;;;;5.39;93.19;99236.78;5042759;28;20284;-68
2023/01/21 08:16:28;;;;;;;25.03;19.20;;;;;;;5.35;94.19;99239.91;5043495;28;20661;-67
2023/01/21 08:18:55;;;;;;;47.73;22.87;;;;;;;5.45;94.42;99238.75;5039004;28;20197;-66
2023/01/21 08:21:21;;;;;;;29.83;20.10;;;;;;;5.42;94.18;99238.25;5035170;28;20197;-66
2023/01/21 08:23:48;;;;;;;33.30;20.33;;;;;;;5.46;94.26;99245.66;5034531;28;20294;-66
2023/01/21 08:26:16;;;;;;;34.40;22.03;;;;;;;5.42;95.02;99233.81;5035358;28;20263;-68
2023/01/21 08:28:43;;;;;;;31.53;20.23;;;;;;;5.41;95.01;99226.91;5034777;28;20248;-68
2023/01/21 08:31:11;;;;;;;34.33;22.17;;;;;;;5.41;95.12;99219.00;5047388;28;20703;-69
2023/01/21 08:33:38;;;;;;;40.60;24.77;;;;;;;5.37;95.62;99225.59;5054751;28;20251;-68
2023/01/21 08:36:08;;;;;;;42.67;24.07;;;;;;;5.27;96.59;99227.59;5052262;28;20254;-68
2023/01/21 08:38:35;;;;;;;43.30;25.53;;;;;;;5.32;97.11;99248.16;5034405;28;20193;-68
2023/01/21 08:41:02;;;;;;;45.13;24.20;;;;;;;5.27;97.78;99246.03;5052312;28;20204;-67
2023/01/21 08:43:30;;;;;;;50.90;26.93;;;;;;;5.28;98.58;99225.78;5048072;28;20189;-68
2023/01/21 08:45:58;;;;;;;43.97;26.60;;;;;;;5.32;98.31;99217.38;5044805;28;20200;-66
2023/01/21 08:48:24;;;;;;;50.33;27.20;;;;;;;5.39;98.42;99230.69;5043524;28;20687;-66
2023/01/21 08:50:51;;;;;;;37.10;23.77;;;;;;;5.40;98.96;99230.50;5051981;28;20262;-66
2023/01/21 08:53:18;;;;;;;40.80;24.67;;;;;;;5.49;98.59;99221.63;5033963;28;20251;-66
2023/01/21 08:55:44;;;;;;;50.13;26.60;;;;;;;5.57;98.95;99204.94;5046981;28;20200;-67
2023/01/21 08:58:11;;;;;;;50.47;26.57;;;;;;;5.59;99.16;99211.69;5053968;28;20262;-67
2023/01/21 09:00:40;;;;;;;45.83;26.27;;;;;;;5.69;99.25;99206.22;5054164;28;20192;-67
2023/01/21 09:03:07;;;;;;;48.13;27.10;;;;;;;5.69;98.84;99209.66;5053120;28;20197;-66
2023/01/21 09:05:34;;;;;;;56.47;29.13;;;;;;;5.70;99.12;99200.78;5053355;28;20238;-66
2023/01/21 09:08:00;;;;;;;53.07;27.83;;;;;;;5.78;99.51;99206.00;5054006;28;20197;-66
2023/01/21 09:13:11;;;;;;;44.03;27.30;;;;;;;6.04;99.39;99191.72;5053490;28;20180;-67
2023/01/21 09:15:40;;;;;;;45.07;27.67;;;;;;;6.19;100.00;99200.50;5034480;28;20248;-65
2023/01/21 09:18:07;;;;;;;48.47;26.97;;;;;;;6.23;98.59;99197.34;5051235;28;20200;-66
2023/01/21 09:20:34;;;;;;;41.40;26.60;;;;;;;6.28;97.91;99195.00;5052750;28;20746;-66
2023/01/21 09:23:01;;;;;;;48.20;25.57;;;;;;;6.31;97.11;99178.00;5047300;28;20624;-68
2023/01/21 09:25:28;;;;;;;45.57;27.67;;;;;;;6.43;97.01;99181.84;5036462;28;20235;-68
2023/01/21 09:27:54;;;;;;;44.43;25.53;;;;;;;6.43;96.10;99198.53;5052019;28;20246;-66
2023/01/21 09:30:21;;;;;;;49.00;27.63;;;;;;;6.40;96.61;99188.31;5051560;28;20653;-67
2023/01/21 09:32:49;;;;;;;45.87;27.07;;;;;;;6.57;97.45;99175.81;5052713;28;20603;-67
2023/01/21 09:35:16;;;;;;;42.83;25.83;;;;;;;6.62;96.53;99178.75;5051371;28;20631;-69
2023/01/21 09:37:43;;;;;;;47.83;25.87;;;;;;;6.69;96.17;99182.31;5052845;28;20201;-67
2023/01/21 09:40:16;;;;;;;44.47;26.93;;;;;;;6.63;96.24;99189.13;5038308;28;20200;-67
2023/01/21 09:42:43;;;;;;;46.40;25.83;;;;;;;6.70;96.02;99191.88;5033319;28;20623;-67
2023/01/21 09:45:14;;;;;;;48.13;27.90;;;;;;;6.69;95.75;99174.41;5045842;28;20620;-67
2023/01/21 09:47:44;;;;;;;37.97;24.43;;;;;;;6.82;96.84;99188.59;5053089;28;20596;-67
2023/01/21 09:50:16;;;;;;;42.10;23.77;;;;;;;6.91;97.04;99176.97;5052981;28;20643;-68
2023/01/21 09:52:44;;;;;;;36.60;21.33;;;;;;;6.89;95.89;99178.13;5052964;28;20208;-68
2023/01/21 09:55:16;;;;;;;38.73;22.50;;;;;;;6.93;95.90;99174.13;5039841;28;20197;-68
2023/01/21 09:58:06;;;;;;;31.43;19.80;;;;;;;7.15;95.52;99160.84;5050736;28;20182;-68
2023/01/21 10:00:40;;;;;;;33.03;20.30;;;;;;;7.38;93.19;99158.94;5052841;28;20185;-67
2023/01/21 10:03:18;;;;;;;29.87;20.07;;;;;;;7.56;91.88;99158.56;5052138;28;20188;-67
2023/01/21 10:06:11;;;;;;;33.93;22.27;;;;;;;7.69;91.61;99150.78;5052058;28;20254;-66
2023/01/21 10:08:52;;;;;;;36.80;22.33;;;;;;;7.87;91.56;99148.53;5052956;28;20185;-67
2023/01/21 10:11:31;;;;;;;31.63;19.67;;;;;;;7.95;90.95;99146.59;5044698;28;20239;-67
2023/01/21 10:14:12;;;;;;;30.53;20.23;;;;;;;8.20;90.98;99155.81;5035061;28;20692;-66
2023/01/21 10:16:45;;;;;;;35.37;21.83;;;;;;;8.43;88.51;99151.19;5041202;28;20193;-67
2023/01/21 10:19:17;;;;;;;29.37;20.50;;;;;;;8.54;89.48;99147.19;5044612;28;20251;-67
2023/01/21 10:21:48;;;;;;;27.30;19.53;;;;;;;8.47;87.02;99151.59;5041667;28;20298;-68
2023/01/21 10:24:19;;;;;;;30.37;19.87;;;;;;;8.40;88.23;99140.13;5051952;28;20701;-69
2023/01/21 10:26:49;;;;;;;34.13;21.23;;;;;;;8.28;88.65;99131.91;5050544;28;20239;-67
2023/01/21 10:29:17;;;;;;;33.87;22.60;;;;;;;8.35;90.31;99124.00;5041393;28;20187;-68
2023/01/21 10:31:49;;;;;;;35.67;21.37;;;;;;;8.34;88.80;99119.75;5049355;28;20220;-68
2023/01/21 10:34:18;;;;;;;29.83;21.10;;;;;;;8.26;88.57;99106.66;5052280;28;20200;-68
2023/01/21 10:37:14;;;;;;;33.53;21.43;;;;;;;8.27;89.11;99102.97;5044172;28;20665;-69
2023/01/21 10:39:50;;;;;;;26.73;19.47;;;;;;;8.25;89.03;99095.22;5048723;28;20185;-68
2023/01/21 10:42:48;;;;;;;28.37;20.63;;;;;;;8.28;89.12;99088.72;5047690;28;20563;-68
2023/01/21 10:45:24;;;;;;;33.17;20.57;;;;;;;8.30;89.70;99086.72;5044753;28;20198;-68
2023/01/21 10:47:56;;;;;;;27.50;19.70;;;;;;;8.32;89.35;99090.81;5051123;28;20319;-68
2023/01/21 10:50:35;;;;;;;31.17;19.50;;;;;;;8.35;90.95;99084.31;5048596;28;20210;-68
2023/01/21 10:53:13;;;;;;;29.30;19.33;;;;;;;8.41;90.62;99083.56;5049731;28;20310;-66
2023/01/21 10:55:55;;;;;;;32.07;21.43;;;;;;;8.41;90.43;99075.63;5045704;28;20191;-68
2023/01/21 10:58:27;;;;;;;31.93;18.43;;;;;;;8.66;90.87;99071.53;5045147;28;20197;-68
2023/01/21 11:00:57;;;;;;;30.50;20.13;;;;;;;8.95;90.27;99073.94;5047878;28;20181;-68
2023/01/21 11:03:33;;;;;;;33.47;20.90;;;;;;;9.02;88.44;99056.22;5051250;28;20634;-68
2023/01/21 11:06:03;;;;;;;28.40;19.27;;;;;;;9.27;88.03;99068.00;5050179;28;20653;-68
2023/01/21 11:08:31;;;;;;;30.63;20.10;;;;;;;9.40;87.84;99060.06;5047766;28;20201;-69
2023/01/21 11:10:59;;;;;;;34.17;21.27;;;;;;;9.44;88.20;99050.72;5047813;28;20188;-68
2023/01/21 11:13:26;;;;;;;33.33;20.80;;;;;;;9.36;86.63;99038.44;5051369;28;20216;-69
2023/01/21 11:15:54;;;;;;;29.20;21.13;;;;;;;9.42;86.79;99050.06;5051126;28;20211;-68
2023/01/21 11:18:27;;;;;;;27.90;20.40;;;;;;;9.61;87.14;99073.97;5046206;28;20246;-68
2023/01/21 11:20:57;;;;;;;35.63;21.07;;;;;;;9.62;87.17;99061.56;5050826;28;20694;-68
2023/01/21 11:23:29;;;;;;;35.83;22.17;;;;;;;9.73;86.99;99071.59;5048022;28;20625;-69
2023/01/21 11:26:06;;;;;;;33.87;21.17;;;;;;;9.87;87.27;99062.63;5050407;28;20609;-68
2023/01/21 11:28:33;;;;;;;32.43;22.20;;;;;;;10.03;86.09;99070.19;5049095;28;20254;-68
2023/01/21 11:31:13;;;;;;;35.40;22.03;;;;;;;10.13;84.36;99078.63;5047129;28;20220;-68
2023/01/21 11:33:42;;;;;;;38.77;23.47;;;;;;;9.99;84.51;99080.41;5049116;28;20266;-67
2023/01/21 11:36:16;;;;;;;41.77;23.40;;;;;;;10.02;85.85;99065.91;5050312;28;20593;-67
2023/01/21 11:38:44;;;;;;;43.53;23.37;;;;;;;10.06;85.42;99056.56;5048412;28;20184;-67
2023/01/21 11:41:22;;;;;;;35.70;23.00;;;;;;;10.20;85.09;99048.41;5050353;28;20321;-69
2023/01/21 11:43:51;;;;;;;32.77;23.33;;;;;;;10.33;84.44;99047.56;5046353;28;20211;-70